sensor_id;sensor_type;location;lat;lon;timestamp;pressure;altitude;pressure_sealevel;temperature;humidity
74427;BME280;62859;53.906;27.430;2023-12-20T00:01:28;996.4;;;7.6;70.6
74427;BME280;62859;53.906;27.430;2023-12-20T00:07:08;996.3;;;7.6;70.8
74427;BME280;62859;53.906;27.430;2023-12-20T00:11:48;996.3;;;7.6;70.8
74427;BME280;62859;53.906;27.430;2023-12-20T00:17:08;996.3;;;7.5;70.7
74427;BME280;62859;53.906;27.430;2023-12-20T00:21:58;996.4;;;7.6;71.2
74427;BME280;62859;53.906;27.430;2023-12-20T00:26:28;996.4;;;7.6;70.6
74427;BME280;62859;53.906;27.430;2023-12-20T00:32:06;996.3;;;7.6;70.6
74427;BME280;62859;53.906;27.430;2023-12-20T00:36:30;996.1;;;7.7;70.4
74427;BME280;62859;53.906;27.430;2023-12-20T00:41:54;996.1;;;7.7;70.1
74427;BME280;62859;53.906;27.430;2023-12-20T00:46:28;996.1;;;7.7;69.9
74427;BME280;62859;53.906;27.430;2023-12-20T00:51:34;996;;;7.6;70
74427;BME280;62859;53.906;27.430;2023-12-20T00:57:06;996;;;7.7;69.9
74427;BME280;62859;53.906;27.430;2023-12-20T01:01:58;995.9;;;7.7;69.9
74427;BME280;62859;53.906;27.430;2023-12-20T01:07:08;995.9;;;7.8;70.5
74427;BME280;62859;53.906;27.430;2023-12-20T01:11:58;995.9;;;7.7;70.2
74427;BME280;62859;53.906;27.430;2023-12-20T01:16:44;995.9;;;7.7;70
74427;BME280;62859;53.906;27.430;2023-12-20T01:22:08;995.9;;;7.7;69.9
74427;BME280;62859;53.906;27.430;2023-12-20T01:26:39;995.8;;;7.7;69.9
74427;BME280;62859;53.906;27.430;2023-12-20T01:31:36;995.7;;;7.7;69.9
74427;BME280;62859;53.906;27.430;2023-12-20T01:36:36;995.7;;;7.7;69.9
74427;BME280;62859;53.906;27.430;2023-12-20T01:41:34;995.7;;;7.7;69.9
74427;BME280;62859;53.906;27.430;2023-12-20T01:47:08;995.6;;;7.7;70
74427;BME280;62859;53.906;27.430;2023-12-20T01:51:36;995.4;;;7.7;70
74427;BME280;62859;53.906;27.430;2023-12-20T01:57:06;995.4;;;7.7;70
74427;BME280;62859;53.906;27.430;2023-12-20T02:01:58;995.3;;;7.7;69.9
74427;BME280;62859;53.906;27.430;2023-12-20T02:06:29;995.3;;;7.7;69.7
74427;BME280;62859;53.906;27.430;2023-12-20T02:12:08;995.2;;;7.7;69.5
74427;BME280;62859;53.906;27.430;2023-12-20T02:16:58;995.2;;;7.7;69.5
74427;BME280;62859;53.906;27.430;2023-12-20T02:22:09;995.2;;;7.8;69.2
74427;BME280;62859;53.906;27.430;2023-12-20T02:26:36;995.1;;;7.7;69.4
74427;BME280;62859;53.906;27.430;2023-12-20T02:31:46;995.1;;;7.8;69.6
74427;BME280;62859;53.906;27.430;2023-12-20T02:36:58;995;;;7.8;69.4
74427;BME280;62859;53.906;27.430;2023-12-20T02:42:08;994.9;;;7.9;69.2
74427;BME280;62859;53.906;27.430;2023-12-20T02:46:28;994.9;;;7.9;68.9
74427;BME280;62859;53.906;27.430;2023-12-20T02:51:30;994.8;;;7.9;68.8
74427;BME280;62859;53.906;27.430;2023-12-20T02:56:44;994.8;;;7.9;69
74427;BME280;62859;53.906;27.430;2023-12-20T03:01:45;994.7;;;7.9;68.8
74427;BME280;62859;53.906;27.430;2023-12-20T03:07:08;994.6;;;7.9;68.6
74427;BME280;62859;53.906;27.430;2023-12-20T03:11:29;994.5;;;7.9;68.5
74427;BME280;62859;53.906;27.430;2023-12-20T03:16:36;994.6;;;7.9;69.1
74427;BME280;62859;53.906;27.430;2023-12-20T03:21:48;994.7;;;7.9;69
74427;BME280;62859;53.906;27.430;2023-12-20T03:26:58;994.7;;;7.8;69.2
74427;BME280;62859;53.906;27.430;2023-12-20T03:32:08;994.7;;;7.9;69.1
74427;BME280;62859;53.906;27.430;2023-12-20T03:36:58;994.6;;;7.9;68.8
74427;BME280;62859;53.906;27.430;2023-12-20T03:41:55;994.7;;;7.9;68.8
74427;BME280;62859;53.906;27.430;2023-12-20T03:46:44;994.7;;;7.9;69
74427;BME280;62859;53.906;27.430;2023-12-20T03:52:11;994.7;;;7.8;68.9
74427;BME280;62859;53.906;27.430;2023-12-20T03:57:09;994.7;;;7.8;68.9
74427;BME280;62859;53.906;27.430;2023-12-20T04:01:43;994.6;;;7.9;69.4
74427;BME280;62859;53.906;27.430;2023-12-20T04:06:44;994.6;;;7.9;69.4
74427;BME280;62859;53.906;27.430;2023-12-20T04:11:35;994.6;;;7.9;68.9
74427;BME280;62859;53.906;27.430;2023-12-20T04:16:31;994.5;;;7.9;69.2
74427;BME280;62859;53.906;27.430;2023-12-20T04:22:09;994.5;;;7.8;69.2
74427;BME280;62859;53.906;27.430;2023-12-20T04:26:59;994.6;;;7.8;69.2
74427;BME280;62859;53.906;27.430;2023-12-20T04:31:54;994.5;;;7.8;69
74427;BME280;62859;53.906;27.430;2023-12-20T04:36:37;994.6;;;7.8;68.7
74427;BME280;62859;53.906;27.430;2023-12-20T04:41:44;994.7;;;7.9;69.3
74427;BME280;62859;53.906;27.430;2023-12-20T04:47:09;994.7;;;7.9;69
74427;BME280;62859;53.906;27.430;2023-12-20T04:51:29;994.7;;;7.9;69.2
74427;BME280;62859;53.906;27.430;2023-12-20T04:56:37;994.7;;;7.8;69.1
74427;BME280;62859;53.906;27.430;2023-12-20T05:01:40;994.7;;;7.9;69
74427;BME280;62859;53.906;27.430;2023-12-20T05:06:57;994.6;;;7.9;68.7
74427;BME280;62859;53.906;27.430;2023-12-20T05:12:09;994.5;;;7.9;68.6
74427;BME280;62859;53.906;27.430;2023-12-20T05:16:37;994.4;;;7.9;68.4
74427;BME280;62859;53.906;27.430;2023-12-20T05:21:37;994.4;;;7.9;68.6
74427;BME280;62859;53.906;27.430;2023-12-20T05:26:29;994.3;;;7.9;69.1
74427;BME280;62859;53.906;27.430;2023-12-20T05:31:45;994.4;;;7.8;68.6
74427;BME280;62859;53.906;27.430;2023-12-20T05:37:09;994.4;;;7.8;68.6
74427;BME280;62859;53.906;27.430;2023-12-20T05:41:47;994.4;;;7.8;68.5
74427;BME280;62859;53.906;27.430;2023-12-20T05:47:09;994.4;;;7.8;68.4
74427;BME280;62859;53.906;27.430;2023-12-20T05:51:35;994.4;;;7.8;68.2
74427;BME280;62859;53.906;27.430;2023-12-20T05:56:59;994.3;;;7.8;68
74427;BME280;62859;53.906;27.430;2023-12-20T06:01:51;994.4;;;7.9;67.6
74427;BME280;62859;53.906;27.430;2023-12-20T06:06:59;994.4;;;7.9;67.7
74427;BME280;62859;53.906;27.430;2023-12-20T06:12:09;994.4;;;7.9;68.2
74427;BME280;62859;53.906;27.430;2023-12-20T06:16:29;994.5;;;7.9;68
74427;BME280;62859;53.906;27.430;2023-12-20T06:21:29;994.5;;;7.9;67.5
74427;BME280;62859;53.906;27.430;2023-12-20T06:27:09;994.5;;;7.9;67.5
74427;BME280;62859;53.906;27.430;2023-12-20T06:31:29;994.5;;;7.9;67.5
74427;BME280;62859;53.906;27.430;2023-12-20T06:36:29;994.6;;;7.9;67.4
74427;BME280;62859;53.906;27.430;2023-12-20T06:41:29;994.6;;;7.8;67.6
74427;BME280;62859;53.906;27.430;2023-12-20T06:46:59;994.6;;;7.9;67.9
74427;BME280;62859;53.906;27.430;2023-12-20T06:52:01;994.6;;;8;67.2
74427;BME280;62859;53.906;27.430;2023-12-20T06:56:45;994.7;;;8;67.7
74427;BME280;62859;53.906;27.430;2023-12-20T07:01:53;994.8;;;8;67.6
74427;BME280;62859;53.906;27.430;2023-12-20T07:06:29;994.8;;;8;67.3
74427;BME280;62859;53.906;27.430;2023-12-20T07:11:45;994.8;;;7.9;67.4
74427;BME280;62859;53.906;27.430;2023-12-20T07:17:01;994.8;;;7.9;67.4
74427;BME280;62859;53.906;27.430;2023-12-20T07:21:51;994.8;;;7.9;67.5
74427;BME280;62859;53.906;27.430;2023-12-20T07:26:37;994.9;;;8;67.4
74427;BME280;62859;53.906;27.430;2023-12-20T07:32:01;994.9;;;8;67.6
74427;BME280;62859;53.906;27.430;2023-12-20T07:36:59;994.8;;;8;67.4
74427;BME280;62859;53.906;27.430;2023-12-20T07:42:09;994.7;;;8;67.8
74427;BME280;62859;53.906;27.430;2023-12-20T07:46:43;994.7;;;8.1;68
74427;BME280;62859;53.906;27.430;2023-12-20T07:56:47;994.7;;;8;67.7
74427;BME280;62859;53.906;27.430;2023-12-20T08:01:35;994.7;;;8.2;68.3
74427;BME280;62859;53.906;27.430;2023-12-20T08:07:11;994.7;;;8.4;67.3
74427;BME280;62859;53.906;27.430;2023-12-20T08:11:29;994.7;;;8.4;66.8
74427;BME280;62859;53.906;27.430;2023-12-20T08:16:37;994.7;;;8.3;66.8
74427;BME280;62859;53.906;27.430;2023-12-20T08:22:11;994.8;;;8.3;66.9
74427;BME280;62859;53.906;27.430;2023-12-20T08:26:59;994.9;;;8.2;67.1
74427;BME280;62859;53.906;27.430;2023-12-20T08:31:59;995;;;8.1;67.4
74427;BME280;62859;53.906;27.430;2023-12-20T08:36:29;995;;;8.1;67.6
74427;BME280;62859;53.906;27.430;2023-12-20T08:41:55;994.9;;;8.1;68.1
74427;BME280;62859;53.906;27.430;2023-12-20T08:47:11;995;;;8.1;68.1
74427;BME280;62859;53.906;27.430;2023-12-20T08:51:43;994.9;;;8.1;68.1
74427;BME280;62859;53.906;27.430;2023-12-20T08:57:09;994.9;;;8.1;68.2
74427;BME280;62859;53.906;27.430;2023-12-20T09:01:59;994.8;;;8;68.3
74427;BME280;62859;53.906;27.430;2023-12-20T09:06:37;994.8;;;8.1;68.3
74427;BME280;62859;53.906;27.430;2023-12-20T09:11:51;994.8;;;8.1;68.4
74427;BME280;62859;53.906;27.430;2023-12-20T09:16:51;994.7;;;8.1;68.2
74427;BME280;62859;53.906;27.430;2023-12-20T09:22:01;994.7;;;8.1;68.4
74427;BME280;62859;53.906;27.430;2023-12-20T09:26:37;994.7;;;8.1;68.4
74427;BME280;62859;53.906;27.430;2023-12-20T09:31:39;994.7;;;8.2;68.7
74427;BME280;62859;53.906;27.430;2023-12-20T09:37:09;994.6;;;8.2;68.6
74427;BME280;62859;53.906;27.430;2023-12-20T09:41:29;994.7;;;8.3;68
74427;BME280;62859;53.906;27.430;2023-12-20T09:47:09;994.6;;;8.2;68
74427;BME280;62859;53.906;27.430;2023-12-20T09:52:11;994.5;;;8.1;68.2
74427;BME280;62859;53.906;27.430;2023-12-20T09:56:37;994.5;;;8.1;68.4
74427;BME280;62859;53.906;27.430;2023-12-20T10:02:10;994.4;;;8.1;68.7
74427;BME280;62859;53.906;27.430;2023-12-20T10:07:01;994.2;;;8;68.8
74427;BME280;62859;53.906;27.430;2023-12-20T10:12:11;994.2;;;8.1;69.4
74427;BME280;62859;53.906;27.430;2023-12-20T10:16:45;994.2;;;8.1;69.8
74427;BME280;62859;53.906;27.430;2023-12-20T10:21:55;994.1;;;8.1;69.3
74427;BME280;62859;53.906;27.430;2023-12-20T10:27:11;994;;;8;69.5
74427;BME280;62859;53.906;27.430;2023-12-20T10:31:59;994;;;8;69.3
74427;BME280;62859;53.906;27.430;2023-12-20T10:37:13;993.9;;;8;69.4
74427;BME280;62859;53.906;27.430;2023-12-20T10:41:41;993.9;;;8.1;69.3
74427;BME280;62859;53.906;27.430;2023-12-20T10:46:31;993.9;;;8.1;68.9
74427;BME280;62859;53.906;27.430;2023-12-20T10:52:11;994;;;8.1;68.8
74427;BME280;62859;53.906;27.430;2023-12-20T10:56:59;994;;;8.1;68.7
74427;BME280;62859;53.906;27.430;2023-12-20T11:02:01;994;;;8.2;69.2
74427;BME280;62859;53.906;27.430;2023-12-20T11:06:46;994;;;8.2;68.9
74427;BME280;62859;53.906;27.430;2023-12-20T11:12:00;993.9;;;8.2;69.2
74427;BME280;62859;53.906;27.430;2023-12-20T11:16:47;993.9;;;8.3;69.2
74427;BME280;62859;53.906;27.430;2023-12-20T11:21:31;993.9;;;8.3;68.1
74427;BME280;62859;53.906;27.430;2023-12-20T11:27:11;993.8;;;8.3;67.9
74427;BME280;62859;53.906;27.430;2023-12-20T11:31:39;993.8;;;8.3;67.9
74427;BME280;62859;53.906;27.430;2023-12-20T11:36:45;993.8;;;8.4;68.1
74427;BME280;62859;53.906;27.430;2023-12-20T11:41:49;993.8;;;8.4;68
74427;BME280;62859;53.906;27.430;2023-12-20T11:46:41;993.8;;;8.3;68.2
74427;BME280;62859;53.906;27.430;2023-12-20T11:51:45;993.8;;;8.3;68.5
74427;BME280;62859;53.906;27.430;2023-12-20T11:57:11;993.8;;;8.3;68.5
74427;BME280;62859;53.906;27.430;2023-12-20T12:02:11;993.8;;;8.3;68.6
74427;BME280;62859;53.906;27.430;2023-12-20T12:06:55;993.8;;;8.2;68.9
74427;BME280;62859;53.906;27.430;2023-12-20T12:11:37;993.7;;;8.1;68.8
74427;BME280;62859;53.906;27.430;2023-12-20T12:16:29;993.6;;;8.1;69
74427;BME280;62859;53.906;27.430;2023-12-20T12:21:37;993.6;;;8.2;69.3
74427;BME280;62859;53.906;27.430;2023-12-20T12:26:35;993.6;;;8.2;69.8
74427;BME280;62859;53.906;27.430;2023-12-20T12:32:04;993.5;;;8.1;69.4
74427;BME280;62859;53.906;27.430;2023-12-20T12:36:29;993.5;;;8.1;69.7
74427;BME280;62859;53.906;27.430;2023-12-20T12:41:57;993.5;;;8.1;69.4
74427;BME280;62859;53.906;27.430;2023-12-20T12:47:03;993.5;;;8.1;69.3
74427;BME280;62859;53.906;27.430;2023-12-20T12:51:57;993.4;;;8.1;69.4
74427;BME280;62859;53.906;27.430;2023-12-20T12:56:55;993.3;;;8.1;69.6
74427;BME280;62859;53.906;27.430;2023-12-20T13:01:29;993.4;;;8.1;69.5
74427;BME280;62859;53.906;27.430;2023-12-20T13:06:37;993.4;;;8.2;69.6
74427;BME280;62859;53.906;27.430;2023-12-20T13:11:49;993.4;;;8.2;69.8
74427;BME280;62859;53.906;27.430;2023-12-20T13:16:29;993.4;;;8.2;69.5
74427;BME280;62859;53.906;27.430;2023-12-20T13:22:11;993.3;;;8.2;69.2
74427;BME280;62859;53.906;27.430;2023-12-20T13:27:11;993.3;;;8.2;69.2
74427;BME280;62859;53.906;27.430;2023-12-20T13:31:47;993.2;;;8.1;69.1
74427;BME280;62859;53.906;27.430;2023-12-20T13:37:09;993.2;;;8.1;69.2
74427;BME280;62859;53.906;27.430;2023-12-20T13:41:47;993.2;;;8.1;69
74427;BME280;62859;53.906;27.430;2023-12-20T13:46:57;993.1;;;8.1;69.2
74427;BME280;62859;53.906;27.430;2023-12-20T13:51:43;993.1;;;8.2;68.9
74427;BME280;62859;53.906;27.430;2023-12-20T13:56:29;993.1;;;8.2;69.2
74427;BME280;62859;53.906;27.430;2023-12-20T14:01:51;993;;;8.2;68.9
74427;BME280;62859;53.906;27.430;2023-12-20T14:06:37;993;;;8;68.9
74427;BME280;62859;53.906;27.430;2023-12-20T14:12:11;992.9;;;8;69.2
74427;BME280;62859;53.906;27.430;2023-12-20T14:16:49;992.9;;;8;69.4
74427;BME280;62859;53.906;27.430;2023-12-20T14:21:55;992.9;;;8;69.1
74427;BME280;62859;53.906;27.430;2023-12-20T14:27:11;992.9;;;8;68.6
74427;BME280;62859;53.906;27.430;2023-12-20T14:31:55;992.8;;;7.9;68.7
74427;BME280;62859;53.906;27.430;2023-12-20T14:36:37;992.7;;;7.9;69.1
74427;BME280;62859;53.906;27.430;2023-12-20T14:41:29;992.7;;;7.9;69
74427;BME280;62859;53.906;27.430;2023-12-20T14:46:29;992.6;;;8;68.9
74427;BME280;62859;53.906;27.430;2023-12-20T14:51:29;992.6;;;8;68.8
74427;BME280;62859;53.906;27.430;2023-12-20T14:56:53;992.6;;;7.9;68.8
74427;BME280;62859;53.906;27.430;2023-12-20T15:02:11;992.6;;;7.9;68.9
74427;BME280;62859;53.906;27.430;2023-12-20T15:06:29;992.5;;;7.8;68.8
74427;BME280;62859;53.906;27.430;2023-12-20T15:11:31;992.5;;;7.9;69.8
74427;BME280;62859;53.906;27.430;2023-12-20T15:17:09;992.5;;;8;68.8
74427;BME280;62859;53.906;27.430;2023-12-20T15:21:47;992.4;;;8;68.5
74427;BME280;62859;53.906;27.430;2023-12-20T15:26:57;992.4;;;8;68.1
74427;BME280;62859;53.906;27.430;2023-12-20T15:31:37;992.4;;;8;67.9
74427;BME280;62859;53.906;27.430;2023-12-20T15:36:35;992.3;;;8;67.4
74427;BME280;62859;53.906;27.430;2023-12-20T15:41:29;992.3;;;7.9;67.2
74427;BME280;62859;53.906;27.430;2023-12-20T15:46:37;992.3;;;7.9;67.2
74427;BME280;62859;53.906;27.430;2023-12-20T15:52:07;992.2;;;7.8;67.3
74427;BME280;62859;53.906;27.430;2023-12-20T15:56:37;992.2;;;7.8;67.1
74427;BME280;62859;53.906;27.430;2023-12-20T16:01:53;992.1;;;7.8;67.2
74427;BME280;62859;53.906;27.430;2023-12-20T16:06:57;992.1;;;7.8;68
74427;BME280;62859;53.906;27.430;2023-12-20T16:11:31;992.1;;;7.8;67.8
74427;BME280;62859;53.906;27.430;2023-12-20T16:17:07;992;;;7.8;67.5
74427;BME280;62859;53.906;27.430;2023-12-20T16:21:45;992.1;;;7.8;67.5
74427;BME280;62859;53.906;27.430;2023-12-20T16:26:45;992.1;;;7.8;67.4
74427;BME280;62859;53.906;27.430;2023-12-20T16:31:37;992;;;7.8;67.2
74427;BME280;62859;53.906;27.430;2023-12-20T16:37:01;992;;;7.8;66.8
74427;BME280;62859;53.906;27.430;2023-12-20T16:41:58;992;;;7.8;66.5
74427;BME280;62859;53.906;27.430;2023-12-20T16:47:13;992;;;7.8;66.6
74427;BME280;62859;53.906;27.430;2023-12-20T16:52:01;992;;;7.8;66.4
74427;BME280;62859;53.906;27.430;2023-12-20T16:56:57;992;;;7.8;66.5
74427;BME280;62859;53.906;27.430;2023-12-20T17:02:09;992.1;;;7.7;66
74427;BME280;62859;53.906;27.430;2023-12-20T17:07:11;992.1;;;7.7;66.1
74427;BME280;62859;53.906;27.430;2023-12-20T17:11:29;992;;;7.6;66.2
74427;BME280;62859;53.906;27.430;2023-12-20T17:16:30;991.8;;;7.6;66
74427;BME280;62859;53.906;27.430;2023-12-20T17:22:09;991.8;;;7.6;65.8
74427;BME280;62859;53.906;27.430;2023-12-20T17:26:49;991.7;;;7.5;65.9
74427;BME280;62859;53.906;27.430;2023-12-20T17:32:01;991.7;;;7.5;66.5
74427;BME280;62859;53.906;27.430;2023-12-20T17:36:37;991.7;;;7.5;66.5
74427;BME280;62859;53.906;27.430;2023-12-20T17:42:11;991.7;;;7.5;66.6
74427;BME280;62859;53.906;27.430;2023-12-20T17:47:01;991.7;;;7.5;66.2
74427;BME280;62859;53.906;27.430;2023-12-20T17:51:29;991.6;;;7.4;66.1
74427;BME280;62859;53.906;27.430;2023-12-20T17:57:13;991.5;;;7.4;66.2
74427;BME280;62859;53.906;27.430;2023-12-20T18:01:53;991.3;;;7.4;65.7
74427;BME280;62859;53.906;27.430;2023-12-20T18:06:29;991.1;;;7.4;65.6
74427;BME280;62859;53.906;27.430;2023-12-20T18:11:41;991;;;7.3;65
74427;BME280;62859;53.906;27.430;2023-12-20T18:16:29;991;;;7.3;64.6
74427;BME280;62859;53.906;27.430;2023-12-20T18:21:49;990.9;;;7.3;64
74427;BME280;62859;53.906;27.430;2023-12-20T18:26:29;990.9;;;7.2;62.5
74427;BME280;62859;53.906;27.430;2023-12-20T18:32:07;991;;;7.2;62.5
74427;BME280;62859;53.906;27.430;2023-12-20T18:37:01;991;;;7.1;62.3
74427;BME280;62859;53.906;27.430;2023-12-20T18:41:45;991;;;7.1;62.8
74427;BME280;62859;53.906;27.430;2023-12-20T18:47:11;991;;;7;63.2
74427;BME280;62859;53.906;27.430;2023-12-20T18:51:37;991;;;7;63.6
74427;BME280;62859;53.906;27.430;2023-12-20T18:56:43;991;;;7;63.4
74427;BME280;62859;53.906;27.430;2023-12-20T19:01:51;991;;;7;63.7
74427;BME280;62859;53.906;27.430;2023-12-20T19:06:59;991;;;7;63.7
74427;BME280;62859;53.906;27.430;2023-12-20T19:11:59;991;;;7;63.8
74427;BME280;62859;53.906;27.430;2023-12-20T19:16:41;991;;;7;63.7
74427;BME280;62859;53.906;27.430;2023-12-20T19:22:07;990.9;;;6.9;63.7
74427;BME280;62859;53.906;27.430;2023-12-20T19:27:03;990.9;;;6.9;63.8
74427;BME280;62859;53.906;27.430;2023-12-20T19:32:09;991;;;6.9;63.9
74427;BME280;62859;53.906;27.430;2023-12-20T19:37:13;990.9;;;6.8;63.8
74427;BME280;62859;53.906;27.430;2023-12-20T19:41:29;990.9;;;6.8;64.2
74427;BME280;62859;53.906;27.430;2023-12-20T19:47:03;990.9;;;6.9;64.6
74427;BME280;62859;53.906;27.430;2023-12-20T19:51:37;990.8;;;6.9;64.8
74427;BME280;62859;53.906;27.430;2023-12-20T19:56:41;990.8;;;6.9;64.5
74427;BME280;62859;53.906;27.430;2023-12-20T20:01:53;990.8;;;6.8;64.6
74427;BME280;62859;53.906;27.430;2023-12-20T20:06:51;990.8;;;6.8;65
74427;BME280;62859;53.906;27.430;2023-12-20T20:12:11;990.8;;;6.8;64.8
74427;BME280;62859;53.906;27.430;2023-12-20T20:16:51;990.7;;;6.8;64.9
74427;BME280;62859;53.906;27.430;2023-12-20T20:21:29;990.7;;;6.7;65.1
74427;BME280;62859;53.906;27.430;2023-12-20T20:27:11;990.6;;;6.7;65.4
74427;BME280;62859;53.906;27.430;2023-12-20T20:31:45;990.6;;;6.8;65.3
74427;BME280;62859;53.906;27.430;2023-12-20T20:36:35;990.7;;;6.7;65.1
74427;BME280;62859;53.906;27.430;2023-12-20T20:41:37;990.7;;;6.7;64.9
74427;BME280;62859;53.906;27.430;2023-12-20T20:46:37;990.7;;;6.7;64.9
74427;BME280;62859;53.906;27.430;2023-12-20T20:52:13;990.6;;;6.7;64.7
74427;BME280;62859;53.906;27.430;2023-12-20T20:57:01;990.6;;;6.7;64.5
74427;BME280;62859;53.906;27.430;2023-12-20T21:01:37;990.5;;;6.7;64.5
74427;BME280;62859;53.906;27.430;2023-12-20T21:06:31;990.5;;;6.6;64.6
74427;BME280;62859;53.906;27.430;2023-12-20T21:11:53;990.4;;;6.7;64.9
74427;BME280;62859;53.906;27.430;2023-12-20T21:17:07;990.3;;;6.7;64.6
74427;BME280;62859;53.906;27.430;2023-12-20T21:21:45;990.3;;;6.7;64.4
74427;BME280;62859;53.906;27.430;2023-12-20T21:26:45;990.3;;;6.7;64.2
74427;BME280;62859;53.906;27.430;2023-12-20T21:32:01;990.4;;;6.6;64
74427;BME280;62859;53.906;27.430;2023-12-20T21:36:49;990.3;;;6.5;64.3
74427;BME280;62859;53.906;27.430;2023-12-20T21:42:11;990.2;;;6.4;64.7
74427;BME280;62859;53.906;27.430;2023-12-20T21:47:01;990.2;;;6.3;64.9
74427;BME280;62859;53.906;27.430;2023-12-20T21:51:55;990.1;;;6.3;64.9
74427;BME280;62859;53.906;27.430;2023-12-20T21:56:59;990.1;;;6.3;65.1
74427;BME280;62859;53.906;27.430;2023-12-20T22:01:43;990.1;;;6.3;65.7
74427;BME280;62859;53.906;27.430;2023-12-20T22:07:09;990;;;6.3;65.2
74427;BME280;62859;53.906;27.430;2023-12-20T22:12:13;989.9;;;6.3;65.4
74427;BME280;62859;53.906;27.430;2023-12-20T22:16:29;989.9;;;6.2;65.5
74427;BME280;62859;53.906;27.430;2023-12-20T22:21:37;989.9;;;6.1;65.9
74427;BME280;62859;53.906;27.430;2023-12-20T22:26:41;989.9;;;6.1;66.1
74427;BME280;62859;53.906;27.430;2023-12-20T22:32:13;989.8;;;6.1;66.4
74427;BME280;62859;53.906;27.430;2023-12-20T22:37:01;989.8;;;6;66.8
74427;BME280;62859;53.906;27.430;2023-12-20T22:41:37;989.8;;;6;66.8
74427;BME280;62859;53.906;27.430;2023-12-20T22:46:51;989.8;;;6;67.4
74427;BME280;62859;53.906;27.430;2023-12-20T22:52:13;989.7;;;6;67.3
74427;BME280;62859;53.906;27.430;2023-12-20T22:57:07;989.6;;;5.9;67.2
74427;BME280;62859;53.906;27.430;2023-12-20T23:01:35;989.5;;;5.9;67.5
74427;BME280;62859;53.906;27.430;2023-12-20T23:06:43;989.5;;;5.9;67.2
74427;BME280;62859;53.906;27.430;2023-12-20T23:11:29;989.5;;;5.9;67.2
74427;BME280;62859;53.906;27.430;2023-12-20T23:16:29;989.5;;;6;66.7
74427;BME280;62859;53.906;27.430;2023-12-20T23:22:13;989.5;;;5.9;66.5
74427;BME280;62859;53.906;27.430;2023-12-20T23:27:03;989.4;;;6;67.1
74427;BME280;62859;53.906;27.430;2023-12-20T23:31:43;989.3;;;6;67.3
74427;BME280;62859;53.906;27.430;2023-12-20T23:36:59;989.4;;;6;67.1
74427;BME280;62859;53.906;27.430;2023-12-20T23:41:59;989.4;;;6;67
74427;BME280;62859;53.906;27.430;2023-12-20T23:47:11;989.3;;;6.1;67
74427;BME280;62859;53.906;27.430;2023-12-20T23:51:35;989.2;;;6.1;66.5
74427;BME280;62859;53.906;27.430;2023-12-20T23:56:37;989.2;;;6.1;66.1
